sensor_id;sensor_type;location;lat;lon;timestamp;pressure;altitude;pressure_sealevel;temperature;humidity
10348;BME280;5220;43.192;23.284;2023-04-28T00:02:18;97342.31;;;7.06;100.00
10348;BME280;5220;43.192;23.284;2023-04-28T00:04:45;97345.28;;;6.98;100.00
10348;BME280;5220;43.192;23.284;2023-04-28T00:07:13;97344.59;;;6.94;100.00
10348;BME280;5220;43.192;23.284;2023-04-28T00:09:40;97337.38;;;6.68;100.00
10348;BME280;5220;43.192;23.284;2023-04-28T00:12:06;97346.13;;;6.66;100.00
10348;BME280;5220;43.192;23.284;2023-04-28T00:14:33;97342.91;;;6.61;100.00
10348;BME280;5220;43.192;23.284;2023-04-28T00:17:00;97350.09;;;6.56;100.00
10348;BME280;5220;43.192;23.284;2023-04-28T00:19:27;97337.75;;;6.61;100.00
10348;BME280;5220;43.192;23.284;2023-04-28T00:21:54;97341.53;;;6.71;100.00
10348;BME280;5220;43.192;23.284;2023-04-28T00:24:22;97334.91;;;6.82;100.00
10348;BME280;5220;43.192;23.284;2023-04-28T00:26:49;97343.06;;;6.58;100.00
10348;BME280;5220;43.192;23.284;2023-04-28T00:29:16;97337.13;;;6.73;100.00
10348;BME280;5220;43.192;23.284;2023-04-28T00:31:43;97338.13;;;6.70;100.00
10348;BME280;5220;43.192;23.284;2023-04-28T00:34:10;97334.03;;;6.66;100.00
10348;BME280;5220;43.192;23.284;2023-04-28T00:36:38;97340.59;;;6.56;100.00
10348;BME280;5220;43.192;23.284;2023-04-28T00:39:05;97328.19;;;6.63;100.00
10348;BME280;5220;43.192;23.284;2023-04-28T00:41:35;97336.25;;;6.57;100.00
10348;BME280;5220;43.192;23.284;2023-04-28T00:44:01;97341.59;;;6.36;100.00
10348;BME280;5220;43.192;23.284;2023-04-28T00:46:29;97346.50;;;6.58;100.00
10348;BME280;5220;43.192;23.284;2023-04-28T00:48:56;97341.75;;;6.51;100.00
10348;BME280;5220;43.192;23.284;2023-04-28T00:51:23;97338.06;;;6.72;100.00
10348;BME280;5220;43.192;23.284;2023-04-28T00:53:51;97341.81;;;6.82;100.00
10348;BME280;5220;43.192;23.284;2023-04-28T00:56:18;97338.00;;;6.89;100.00
10348;BME280;5220;43.192;23.284;2023-04-28T00:58:47;97339.78;;;7.04;100.00
10348;BME280;5220;43.192;23.284;2023-04-28T01:01:13;97344.09;;;6.88;100.00
10348;BME280;5220;43.192;23.284;2023-04-28T01:03:40;97338.84;;;6.89;100.00
10348;BME280;5220;43.192;23.284;2023-04-28T01:06:08;97342.97;;;6.76;100.00
10348;BME280;5220;43.192;23.284;2023-04-28T01:08:36;97351.34;;;6.64;100.00
10348;BME280;5220;43.192;23.284;2023-04-28T01:11:03;97353.09;;;6.64;100.00
10348;BME280;5220;43.192;23.284;2023-04-28T01:13:29;97354.41;;;6.72;100.00
10348;BME280;5220;43.192;23.284;2023-04-28T01:15:57;97346.97;;;6.82;100.00
10348;BME280;5220;43.192;23.284;2023-04-28T01:18:24;97346.97;;;6.82;100.00
10348;BME280;5220;43.192;23.284;2023-04-28T01:20:52;97347.94;;;6.64;100.00
10348;BME280;5220;43.192;23.284;2023-04-28T01:23:18;97349.78;;;6.62;100.00
10348;BME280;5220;43.192;23.284;2023-04-28T01:25:46;97340.44;;;6.59;100.00
10348;BME280;5220;43.192;23.284;2023-04-28T01:28:13;97346.41;;;6.77;100.00
10348;BME280;5220;43.192;23.284;2023-04-28T01:30:40;97351.28;;;6.66;100.00
10348;BME280;5220;43.192;23.284;2023-04-28T01:33:06;97348.66;;;6.50;100.00
10348;BME280;5220;43.192;23.284;2023-04-28T01:35:33;97350.56;;;6.46;100.00
10348;BME280;5220;43.192;23.284;2023-04-28T01:38:00;97353.28;;;6.43;100.00
10348;BME280;5220;43.192;23.284;2023-04-28T01:40:27;97349.16;;;6.05;100.00
10348;BME280;5220;43.192;23.284;2023-04-28T01:42:55;97357.56;;;6.10;100.00
10348;BME280;5220;43.192;23.284;2023-04-28T01:45:21;97358.59;;;6.23;100.00
10348;BME280;5220;43.192;23.284;2023-04-28T01:47:48;97355.50;;;6.34;100.00
10348;BME280;5220;43.192;23.284;2023-04-28T01:50:15;97354.38;;;6.22;100.00
10348;BME280;5220;43.192;23.284;2023-04-28T01:52:42;97358.06;;;6.34;100.00
10348;BME280;5220;43.192;23.284;2023-04-28T01:55:08;97350.03;;;6.40;100.00
10348;BME280;5220;43.192;23.284;2023-04-28T01:57:35;97348.88;;;6.63;100.00
10348;BME280;5220;43.192;23.284;2023-04-28T02:00:04;97351.28;;;6.66;100.00
10348;BME280;5220;43.192;23.284;2023-04-28T02:02:31;97353.25;;;6.61;100.00
10348;BME280;5220;43.192;23.284;2023-04-28T02:04:57;97353.78;;;6.67;100.00
10348;BME280;5220;43.192;23.284;2023-04-28T02:07:24;97348.72;;;6.66;100.00
10348;BME280;5220;43.192;23.284;2023-04-28T02:09:51;97352.78;;;6.70;100.00
10348;BME280;5220;43.192;23.284;2023-04-28T02:12:17;97348.47;;;6.70;100.00
10348;BME280;5220;43.192;23.284;2023-04-28T02:14:44;97354.84;;;6.63;100.00
10348;BME280;5220;43.192;23.284;2023-04-28T02:17:12;97358.38;;;6.62;100.00
10348;BME280;5220;43.192;23.284;2023-04-28T02:19:39;97355.41;;;6.53;100.00
10348;BME280;5220;43.192;23.284;2023-04-28T02:22:06;97357.09;;;6.54;100.00
10348;BME280;5220;43.192;23.284;2023-04-28T02:24:34;97361.66;;;6.31;100.00
10348;BME280;5220;43.192;23.284;2023-04-28T02:27:01;97362.09;;;6.39;100.00
10348;BME280;5220;43.192;23.284;2023-04-28T02:29:29;97367.13;;;6.42;100.00
10348;BME280;5220;43.192;23.284;2023-04-28T02:31:56;97371.59;;;6.39;100.00
10348;BME280;5220;43.192;23.284;2023-04-28T02:34:24;97371.22;;;6.29;100.00
10348;BME280;5220;43.192;23.284;2023-04-28T02:36:51;97373.44;;;6.37;100.00
10348;BME280;5220;43.192;23.284;2023-04-28T02:39:17;97374.09;;;6.23;100.00
10348;BME280;5220;43.192;23.284;2023-04-28T02:41:46;97369.56;;;6.28;100.00
10348;BME280;5220;43.192;23.284;2023-04-28T02:44:13;97381.00;;;6.06;100.00
10348;BME280;5220;43.192;23.284;2023-04-28T02:46:39;97385.03;;;6.11;100.00
10348;BME280;5220;43.192;23.284;2023-04-28T02:49:06;97383.31;;;6.29;100.00
10348;BME280;5220;43.192;23.284;2023-04-28T02:51:34;97387.47;;;6.14;100.00
10348;BME280;5220;43.192;23.284;2023-04-28T02:54:01;97389.28;;;6.29;100.00
10348;BME280;5220;43.192;23.284;2023-04-28T02:56:28;97396.84;;;6.34;100.00
10348;BME280;5220;43.192;23.284;2023-04-28T02:58:55;97395.41;;;6.28;100.00
10348;BME280;5220;43.192;23.284;2023-04-28T03:01:22;97403.75;;;6.33;100.00
10348;BME280;5220;43.192;23.284;2023-04-28T03:03:49;97392.34;;;6.37;100.00
10348;BME280;5220;43.192;23.284;2023-04-28T03:06:15;97407.47;;;6.28;100.00
10348;BME280;5220;43.192;23.284;2023-04-28T03:08:43;97406.47;;;6.13;100.00
10348;BME280;5220;43.192;23.284;2023-04-28T03:11:10;97401.75;;;6.21;100.00
10348;BME280;5220;43.192;23.284;2023-04-28T03:13:37;97409.31;;;6.07;100.00
10348;BME280;5220;43.192;23.284;2023-04-28T03:16:04;97412.97;;;6.03;100.00
10348;BME280;5220;43.192;23.284;2023-04-28T03:18:32;97406.44;;;5.96;100.00
10348;BME280;5220;43.192;23.284;2023-04-28T03:20:58;97416.09;;;6.10;100.00
10348;BME280;5220;43.192;23.284;2023-04-28T03:23:26;97421.63;;;5.83;100.00
10348;BME280;5220;43.192;23.284;2023-04-28T03:25:54;97427.06;;;5.77;100.00
10348;BME280;5220;43.192;23.284;2023-04-28T03:28:20;97431.06;;;5.84;100.00
10348;BME280;5220;43.192;23.284;2023-04-28T03:30:47;97437.34;;;5.98;100.00
10348;BME280;5220;43.192;23.284;2023-04-28T03:33:14;97438.09;;;5.62;100.00
10348;BME280;5220;43.192;23.284;2023-04-28T03:35:40;97441.44;;;5.46;100.00
10348;BME280;5220;43.192;23.284;2023-04-28T03:38:07;97434.81;;;5.59;100.00
10348;BME280;5220;43.192;23.284;2023-04-28T03:40:34;97439.22;;;5.57;100.00
10348;BME280;5220;43.192;23.284;2023-04-28T03:43:02;97441.84;;;5.74;100.00
10348;BME280;5220;43.192;23.284;2023-04-28T03:45:29;97448.50;;;5.98;100.00
10348;BME280;5220;43.192;23.284;2023-04-28T03:47:56;97447.44;;;5.83;100.00
10348;BME280;5220;43.192;23.284;2023-04-28T03:50:22;97451.38;;;5.92;100.00
10348;BME280;5220;43.192;23.284;2023-04-28T03:52:49;97449.75;;;5.89;100.00
10348;BME280;5220;43.192;23.284;2023-04-28T03:55:16;97452.63;;;6.02;100.00
10348;BME280;5220;43.192;23.284;2023-04-28T03:57:42;97456.25;;;5.98;100.00
10348;BME280;5220;43.192;23.284;2023-04-28T04:00:12;97462.75;;;6.07;100.00
10348;BME280;5220;43.192;23.284;2023-04-28T04:02:39;97463.53;;;6.26;100.00
10348;BME280;5220;43.192;23.284;2023-04-28T04:05:06;97460.00;;;6.10;100.00
10348;BME280;5220;43.192;23.284;2023-04-28T04:07:33;97457.91;;;6.18;100.00
10348;BME280;5220;43.192;23.284;2023-04-28T04:10:00;97463.03;;;6.01;100.00
10348;BME280;5220;43.192;23.284;2023-04-28T04:12:26;97463.16;;;6.33;100.00
10348;BME280;5220;43.192;23.284;2023-04-28T04:14:53;97474.38;;;6.15;100.00
10348;BME280;5220;43.192;23.284;2023-04-28T04:17:21;97468.94;;;6.38;100.00
10348;BME280;5220;43.192;23.284;2023-04-28T04:19:48;97476.78;;;6.37;100.00
10348;BME280;5220;43.192;23.284;2023-04-28T04:22:14;97474.28;;;6.53;100.00
10348;BME280;5220;43.192;23.284;2023-04-28T04:24:41;97473.75;;;6.63;100.00
10348;BME280;5220;43.192;23.284;2023-04-28T04:27:08;97477.88;;;6.67;100.00
10348;BME280;5220;43.192;23.284;2023-04-28T04:29:34;97474.53;;;6.65;100.00
10348;BME280;5220;43.192;23.284;2023-04-28T04:32:02;97480.94;;;6.75;100.00
10348;BME280;5220;43.192;23.284;2023-04-28T04:34:30;97480.84;;;6.77;100.00
10348;BME280;5220;43.192;23.284;2023-04-28T04:36:56;97481.16;;;6.88;100.00
10348;BME280;5220;43.192;23.284;2023-04-28T04:39:23;97482.34;;;6.98;100.00
10348;BME280;5220;43.192;23.284;2023-04-28T04:41:50;97478.72;;;7.02;100.00
10348;BME280;5220;43.192;23.284;2023-04-28T04:44:16;97481.72;;;7.10;100.00
10348;BME280;5220;43.192;23.284;2023-04-28T04:46:43;97485.69;;;7.17;100.00
10348;BME280;5220;43.192;23.284;2023-04-28T04:49:10;97494.41;;;7.32;100.00
10348;BME280;5220;43.192;23.284;2023-04-28T04:51:38;97495.63;;;7.42;100.00
10348;BME280;5220;43.192;23.284;2023-04-28T04:54:05;97493.22;;;7.54;100.00
10348;BME280;5220;43.192;23.284;2023-04-28T04:56:32;97496.19;;;7.64;100.00
10348;BME280;5220;43.192;23.284;2023-04-28T04:58:58;97495.53;;;7.76;100.00
10348;BME280;5220;43.192;23.284;2023-04-28T05:01:25;97495.97;;;7.84;100.00
10348;BME280;5220;43.192;23.284;2023-04-28T05:03:52;97490.19;;;7.95;100.00
10348;BME280;5220;43.192;23.284;2023-04-28T05:06:18;97491.94;;;8.10;100.00
10348;BME280;5220;43.192;23.284;2023-04-28T05:08:47;97492.13;;;8.23;100.00
10348;BME280;5220;43.192;23.284;2023-04-28T05:11:13;97496.25;;;8.42;100.00
10348;BME280;5220;43.192;23.284;2023-04-28T05:13:41;97493.63;;;8.58;100.00
10348;BME280;5220;43.192;23.284;2023-04-28T05:16:07;97499.50;;;8.76;100.00
10348;BME280;5220;43.192;23.284;2023-04-28T05:18:34;97505.31;;;8.95;100.00
10348;BME280;5220;43.192;23.284;2023-04-28T05:21:01;97492.22;;;9.12;100.00
10348;BME280;5220;43.192;23.284;2023-04-28T05:23:28;97493.38;;;9.36;100.00
10348;BME280;5220;43.192;23.284;2023-04-28T05:25:56;97496.06;;;9.63;100.00
10348;BME280;5220;43.192;23.284;2023-04-28T05:28:22;97492.06;;;9.71;100.00
10348;BME280;5220;43.192;23.284;2023-04-28T05:30:49;97491.50;;;9.95;90.49
10348;BME280;5220;43.192;23.284;2023-04-28T05:33:16;97482.84;;;10.08;85.95
10348;BME280;5220;43.192;23.284;2023-04-28T05:35:42;97491.69;;;10.20;69.04
10348;BME280;5220;43.192;23.284;2023-04-28T05:38:09;97489.88;;;10.35;74.03
10348;BME280;5220;43.192;23.284;2023-04-28T05:40:36;97494.53;;;10.56;74.60
10348;BME280;5220;43.192;23.284;2023-04-28T05:43:04;97492.31;;;10.50;67.66
10348;BME280;5220;43.192;23.284;2023-04-28T05:45:31;97494.34;;;10.59;70.97
10348;BME280;5220;43.192;23.284;2023-04-28T05:47:58;97487.69;;;10.68;62.43
10348;BME280;5220;43.192;23.284;2023-04-28T05:50:25;97482.88;;;10.89;62.17
10348;BME280;5220;43.192;23.284;2023-04-28T05:52:52;97490.59;;;11.03;57.10
10348;BME280;5220;43.192;23.284;2023-04-28T05:55:19;97492.84;;;10.82;58.73
10348;BME280;5220;43.192;23.284;2023-04-28T05:57:45;97485.16;;;10.93;55.03
10348;BME280;5220;43.192;23.284;2023-04-28T06:00:14;97484.00;;;10.85;56.05
10348;BME280;5220;43.192;23.284;2023-04-28T06:02:41;97496.31;;;10.95;58.00
10348;BME280;5220;43.192;23.284;2023-04-28T06:05:08;97492.06;;;11.07;57.40
10348;BME280;5220;43.192;23.284;2023-04-28T06:07:35;97489.66;;;11.04;61.49
10348;BME280;5220;43.192;23.284;2023-04-28T06:10:02;97500.19;;;11.15;57.91
10348;BME280;5220;43.192;23.284;2023-04-28T06:12:30;97488.03;;;10.76;55.99
10348;BME280;5220;43.192;23.284;2023-04-28T06:14:56;97492.34;;;11.02;57.53
10348;BME280;5220;43.192;23.284;2023-04-28T06:17:24;97490.94;;;11.11;55.41
10348;BME280;5220;43.192;23.284;2023-04-28T06:19:51;97493.34;;;11.26;56.95
10348;BME280;5220;43.192;23.284;2023-04-28T06:22:19;97501.69;;;11.44;56.30
10348;BME280;5220;43.192;23.284;2023-04-28T06:24:45;97502.63;;;11.56;52.54
10348;BME280;5220;43.192;23.284;2023-04-28T06:27:12;97501.78;;;11.43;54.61
10348;BME280;5220;43.192;23.284;2023-04-28T06:29:39;97499.72;;;11.48;55.02
10348;BME280;5220;43.192;23.284;2023-04-28T06:32:05;97499.09;;;11.69;55.21
10348;BME280;5220;43.192;23.284;2023-04-28T06:34:34;97502.75;;;11.79;55.98
10348;BME280;5220;43.192;23.284;2023-04-28T06:37:01;97494.31;;;11.89;55.18
10348;BME280;5220;43.192;23.284;2023-04-28T06:39:27;97495.13;;;11.89;52.77
10348;BME280;5220;43.192;23.284;2023-04-28T06:41:54;97492.38;;;12.03;53.48
10348;BME280;5220;43.192;23.284;2023-04-28T06:44:22;97497.88;;;12.11;52.74
10348;BME280;5220;43.192;23.284;2023-04-28T06:46:48;97493.09;;;12.05;53.36
10348;BME280;5220;43.192;23.284;2023-04-28T06:49:15;97489.34;;;12.09;52.57
10348;BME280;5220;43.192;23.284;2023-04-28T06:51:43;97495.38;;;12.22;52.49
10348;BME280;5220;43.192;23.284;2023-04-28T06:54:10;97498.88;;;12.34;50.15
10348;BME280;5220;43.192;23.284;2023-04-28T06:56:37;97484.47;;;12.41;49.74
10348;BME280;5220;43.192;23.284;2023-04-28T06:59:04;97493.56;;;12.59;52.42
10348;BME280;5220;43.192;23.284;2023-04-28T07:01:31;97490.91;;;12.48;51.21
10348;BME280;5220;43.192;23.284;2023-04-28T07:03:58;97498.81;;;12.23;53.04
10348;BME280;5220;43.192;23.284;2023-04-28T07:06:24;97492.09;;;12.31;49.51
10348;BME280;5220;43.192;23.284;2023-04-28T07:08:54;97490.56;;;12.29;50.76
10348;BME280;5220;43.192;23.284;2023-04-28T07:11:21;97492.53;;;12.25;52.44
10348;BME280;5220;43.192;23.284;2023-04-28T07:13:48;97497.75;;;12.25;51.92
10348;BME280;5220;43.192;23.284;2023-04-28T07:16:16;97493.22;;;12.04;48.77
10348;BME280;5220;43.192;23.284;2023-04-28T07:18:43;97483.84;;;12.37;50.24
10348;BME280;5220;43.192;23.284;2023-04-28T07:21:10;97486.50;;;12.49;50.39
10348;BME280;5220;43.192;23.284;2023-04-28T07:23:36;97490.25;;;12.57;48.29
10348;BME280;5220;43.192;23.284;2023-04-28T07:26:06;97489.44;;;12.68;50.57
10348;BME280;5220;43.192;23.284;2023-04-28T07:28:33;97492.66;;;12.71;52.14
10348;BME280;5220;43.192;23.284;2023-04-28T07:30:59;97484.44;;;12.88;51.06
10348;BME280;5220;43.192;23.284;2023-04-28T07:33:26;97486.59;;;12.94;48.94
10348;BME280;5220;43.192;23.284;2023-04-28T07:35:53;97491.03;;;13.05;48.10
10348;BME280;5220;43.192;23.284;2023-04-28T07:38:20;97485.50;;;13.10;48.01
10348;BME280;5220;43.192;23.284;2023-04-28T07:40:46;97484.34;;;13.25;46.27
10348;BME280;5220;43.192;23.284;2023-04-28T07:43:15;97485.94;;;13.04;47.42
10348;BME280;5220;43.192;23.284;2023-04-28T07:45:41;97484.34;;;13.25;49.69
10348;BME280;5220;43.192;23.284;2023-04-28T07:48:10;97486.50;;;13.20;47.21
10348;BME280;5220;43.192;23.284;2023-04-28T07:50:36;97486.25;;;13.34;45.96
10348;BME280;5220;43.192;23.284;2023-04-28T07:53:03;97479.16;;;13.47;47.31
10348;BME280;5220;43.192;23.284;2023-04-28T07:55:30;97472.03;;;13.49;47.46
10348;BME280;5220;43.192;23.284;2023-04-28T07:57:57;97484.41;;;13.69;48.80
10348;BME280;5220;43.192;23.284;2023-04-28T08:00:25;97475.81;;;13.45;45.51
10348;BME280;5220;43.192;23.284;2023-04-28T08:02:52;97465.03;;;13.61;46.39
10348;BME280;5220;43.192;23.284;2023-04-28T08:05:19;97473.94;;;13.58;46.40
10348;BME280;5220;43.192;23.284;2023-04-28T08:07:45;97477.63;;;13.78;47.52
10348;BME280;5220;43.192;23.284;2023-04-28T08:10:12;97473.47;;;13.97;49.14
10348;BME280;5220;43.192;23.284;2023-04-28T08:12:39;97470.25;;;14.05;48.42
10348;BME280;5220;43.192;23.284;2023-04-28T08:15:07;97474.78;;;14.03;43.77
10348;BME280;5220;43.192;23.284;2023-04-28T08:17:35;97466.09;;;14.02;46.81
10348;BME280;5220;43.192;23.284;2023-04-28T08:20:02;97476.91;;;13.65;49.60
10348;BME280;5220;43.192;23.284;2023-04-28T08:22:30;97483.22;;;13.73;47.69
10348;BME280;5220;43.192;23.284;2023-04-28T08:24:56;97485.22;;;13.92;47.62
10348;BME280;5220;43.192;23.284;2023-04-28T08:27:23;97482.50;;;13.93;45.87
10348;BME280;5220;43.192;23.284;2023-04-28T08:29:50;97486.78;;;14.06;45.14
10348;BME280;5220;43.192;23.284;2023-04-28T08:32:17;97482.38;;;14.06;44.76
10348;BME280;5220;43.192;23.284;2023-04-28T08:34:45;97486.91;;;13.82;45.42
10348;BME280;5220;43.192;23.284;2023-04-28T08:37:12;97480.34;;;13.76;46.46
10348;BME280;5220;43.192;23.284;2023-04-28T08:39:38;97482.28;;;13.85;47.25
10348;BME280;5220;43.192;23.284;2023-04-28T08:42:05;97476.81;;;13.77;47.41
10348;BME280;5220;43.192;23.284;2023-04-28T08:44:35;97473.00;;;13.92;46.92
10348;BME280;5220;43.192;23.284;2023-04-28T08:47:04;97469.53;;;13.92;45.97
10348;BME280;5220;43.192;23.284;2023-04-28T08:49:35;97471.06;;;14.17;46.16
10348;BME280;5220;43.192;23.284;2023-04-28T08:52:09;97455.84;;;14.11;46.75
10348;BME280;5220;43.192;23.284;2023-04-28T08:54:38;97453.09;;;14.23;45.95
10348;BME280;5220;43.192;23.284;2023-04-28T08:57:07;97461.66;;;14.25;46.15
10348;BME280;5220;43.192;23.284;2023-04-28T08:59:39;97461.31;;;14.19;43.80
10348;BME280;5220;43.192;23.284;2023-04-28T09:02:07;97456.53;;;14.24;45.20
10348;BME280;5220;43.192;23.284;2023-04-28T09:04:34;97450.22;;;14.48;46.47
10348;BME280;5220;43.192;23.284;2023-04-28T09:07:00;97450.00;;;14.40;46.10
10348;BME280;5220;43.192;23.284;2023-04-28T09:09:29;97441.38;;;14.07;45.51
10348;BME280;5220;43.192;23.284;2023-04-28T09:11:58;97445.09;;;14.47;47.31
10348;BME280;5220;43.192;23.284;2023-04-28T09:14:26;97437.19;;;14.58;45.92
10348;BME280;5220;43.192;23.284;2023-04-28T09:16:53;97431.03;;;14.80;45.95
10348;BME280;5220;43.192;23.284;2023-04-28T09:19:20;97428.63;;;14.88;44.63
10348;BME280;5220;43.192;23.284;2023-04-28T09:21:48;97430.56;;;15.06;45.50
10348;BME280;5220;43.192;23.284;2023-04-28T09:24:25;97429.78;;;15.16;43.68
10348;BME280;5220;43.192;23.284;2023-04-28T09:26:54;97434.59;;;14.58;42.44
10348;BME280;5220;43.192;23.284;2023-04-28T09:29:20;97431.25;;;15.08;49.70
10348;BME280;5220;43.192;23.284;2023-04-28T09:31:47;97422.53;;;15.29;48.96
10348;BME280;5220;43.192;23.284;2023-04-28T09:34:14;97417.53;;;15.46;49.61
10348;BME280;5220;43.192;23.284;2023-04-28T09:36:41;97412.78;;;15.10;42.74
10348;BME280;5220;43.192;23.284;2023-04-28T09:39:07;97398.97;;;15.08;42.67
10348;BME280;5220;43.192;23.284;2023-04-28T09:41:35;97398.88;;;15.40;44.48
10348;BME280;5220;43.192;23.284;2023-04-28T09:44:12;97397.81;;;15.22;44.55
10348;BME280;5220;43.192;23.284;2023-04-28T09:46:40;97399.22;;;15.05;45.34
10348;BME280;5220;43.192;23.284;2023-04-28T09:49:07;97397.34;;;15.37;45.07
10348;BME280;5220;43.192;23.284;2023-04-28T09:51:34;97388.97;;;15.43;44.15
10348;BME280;5220;43.192;23.284;2023-04-28T09:54:01;97394.28;;;15.53;44.16
10348;BME280;5220;43.192;23.284;2023-04-28T09:56:30;97393.72;;;15.49;42.60
10348;BME280;5220;43.192;23.284;2023-04-28T09:58:57;97388.63;;;15.57;42.97
10348;BME280;5220;43.192;23.284;2023-04-28T10:01:26;97391.97;;;15.39;44.34
10348;BME280;5220;43.192;23.284;2023-04-28T10:03:53;97386.72;;;15.39;44.75
10348;BME280;5220;43.192;23.284;2023-04-28T10:06:22;97392.81;;;15.39;42.91
10348;BME280;5220;43.192;23.284;2023-04-28T10:08:50;97386.69;;;15.50;42.32
10348;BME280;5220;43.192;23.284;2023-04-28T10:11:17;97393.22;;;15.35;41.15
10348;BME280;5220;43.192;23.284;2023-04-28T10:13:45;97387.16;;;15.65;41.76
10348;BME280;5220;43.192;23.284;2023-04-28T10:16:13;97387.88;;;15.46;42.85
10348;BME280;5220;43.192;23.284;2023-04-28T10:18:42;97379.66;;;15.60;40.89
10348;BME280;5220;43.192;23.284;2023-04-28T10:21:09;97370.03;;;15.70;44.57
10348;BME280;5220;43.192;23.284;2023-04-28T10:24:08;97376.63;;;15.55;42.44
10348;BME280;5220;43.192;23.284;2023-04-28T10:27:01;97364.72;;;15.51;42.99
10348;BME280;5220;43.192;23.284;2023-04-28T10:29:29;97366.97;;;15.55;44.23
10348;BME280;5220;43.192;23.284;2023-04-28T10:32:19;97362.72;;;15.64;43.09
10348;BME280;5220;43.192;23.284;2023-04-28T10:34:48;97358.19;;;15.76;41.75
10348;BME280;5220;43.192;23.284;2023-04-28T10:37:15;97356.25;;;15.68;41.51
10348;BME280;5220;43.192;23.284;2023-04-28T10:42:51;97355.59;;;15.95;44.52
10348;BME280;5220;43.192;23.284;2023-04-28T10:48:18;97344.34;;;15.64;43.56
10348;BME280;5220;43.192;23.284;2023-04-28T10:51:20;97344.44;;;15.93;42.05
10348;BME280;5220;43.192;23.284;2023-04-28T10:54:13;97332.56;;;16.08;42.84
10348;BME280;5220;43.192;23.284;2023-04-28T10:57:19;97338.69;;;16.28;41.40
10348;BME280;5220;43.192;23.284;2023-04-28T10:59:48;97333.41;;;16.18;41.81
10348;BME280;5220;43.192;23.284;2023-04-28T11:02:48;97334.25;;;16.28;43.13
10348;BME280;5220;43.192;23.284;2023-04-28T11:05:16;97331.31;;;16.02;40.92
10348;BME280;5220;43.192;23.284;2023-04-28T11:13:42;97309.63;;;16.48;40.18
10348;BME280;5220;43.192;23.284;2023-04-28T11:16:13;97309.34;;;16.51;41.89
10348;BME280;5220;43.192;23.284;2023-04-28T11:18:48;97307.28;;;16.74;41.46
10348;BME280;5220;43.192;23.284;2023-04-28T11:21:16;97303.84;;;16.64;39.71
10348;BME280;5220;43.192;23.284;2023-04-28T11:23:44;97307.16;;;16.47;40.90
10348;BME280;5220;43.192;23.284;2023-04-28T11:26:11;97311.59;;;16.37;40.21
10348;BME280;5220;43.192;23.284;2023-04-28T11:28:49;97294.84;;;16.47;40.84
10348;BME280;5220;43.192;23.284;2023-04-28T11:31:17;97296.38;;;16.59;39.05
10348;BME280;5220;43.192;23.284;2023-04-28T11:33:48;97297.75;;;16.54;40.05
10348;BME280;5220;43.192;23.284;2023-04-28T11:36:23;97303.56;;;16.38;40.41
10348;BME280;5220;43.192;23.284;2023-04-28T11:38:50;97294.72;;;16.49;41.43
10348;BME280;5220;43.192;23.284;2023-04-28T11:41:17;97289.59;;;16.57;41.34
10348;BME280;5220;43.192;23.284;2023-04-28T11:43:44;97295.13;;;16.35;41.91
10348;BME280;5220;43.192;23.284;2023-04-28T11:46:16;97290.13;;;16.70;42.36
10348;BME280;5220;43.192;23.284;2023-04-28T11:48:44;97290.13;;;16.80;39.96
10348;BME280;5220;43.192;23.284;2023-04-28T11:51:32;97291.59;;;17.01;41.24
10348;BME280;5220;43.192;23.284;2023-04-28T11:54:00;97299.63;;;17.00;39.76
10348;BME280;5220;43.192;23.284;2023-04-28T11:56:27;97292.78;;;16.70;40.30
10348;BME280;5220;43.192;23.284;2023-04-28T11:59:01;97288.16;;;16.91;41.91
10348;BME280;5220;43.192;23.284;2023-04-28T12:01:30;97283.38;;;17.14;39.86
10348;BME280;5220;43.192;23.284;2023-04-28T12:03:57;97286.94;;;16.76;39.91
10348;BME280;5220;43.192;23.284;2023-04-28T12:06:23;97289.19;;;16.71;40.30
10348;BME280;5220;43.192;23.284;2023-04-28T12:08:50;97282.91;;;16.91;41.08
10348;BME280;5220;43.192;23.284;2023-04-28T12:11:17;97289.03;;;16.73;41.70
10348;BME280;5220;43.192;23.284;2023-04-28T12:14:02;97291.81;;;16.71;40.36
10348;BME280;5220;43.192;23.284;2023-04-28T12:16:38;97292.94;;;16.69;41.52
10348;BME280;5220;43.192;23.284;2023-04-28T12:19:08;97277.63;;;16.91;41.76
10348;BME280;5220;43.192;23.284;2023-04-28T12:21:36;97278.38;;;16.84;40.83
10348;BME280;5220;43.192;23.284;2023-04-28T12:24:13;97279.13;;;17.03;40.03
10348;BME280;5220;43.192;23.284;2023-04-28T12:26:40;97288.88;;;16.84;39.85
10348;BME280;5220;43.192;23.284;2023-04-28T12:29:07;97277.38;;;16.85;42.16
10348;BME280;5220;43.192;23.284;2023-04-28T12:31:48;97274.19;;;16.91;40.24
10348;BME280;5220;43.192;23.284;2023-04-28T12:34:17;97269.03;;;16.99;42.71
10348;BME280;5220;43.192;23.284;2023-04-28T12:36:43;97274.16;;;17.00;40.69
10348;BME280;5220;43.192;23.284;2023-04-28T12:39:13;97268.81;;;16.83;41.22
10348;BME280;5220;43.192;23.284;2023-04-28T12:41:41;97261.38;;;17.15;42.09
10348;BME280;5220;43.192;23.284;2023-04-28T12:44:08;97270.44;;;17.03;40.97
10348;BME280;5220;43.192;23.284;2023-04-28T12:46:35;97263.28;;;17.23;41.40
10348;BME280;5220;43.192;23.284;2023-04-28T12:49:03;97254.75;;;17.38;40.16
10348;BME280;5220;43.192;23.284;2023-04-28T12:51:30;97246.44;;;17.43;39.71
10348;BME280;5220;43.192;23.284;2023-04-28T12:53:59;97252.38;;;17.45;40.56
10348;BME280;5220;43.192;23.284;2023-04-28T12:56:26;97246.94;;;17.56;48.11
10348;BME280;5220;43.192;23.284;2023-04-28T12:58:53;97243.56;;;17.09;39.16
10348;BME280;5220;43.192;23.284;2023-04-28T13:01:20;97247.19;;;17.26;40.01
10348;BME280;5220;43.192;23.284;2023-04-28T13:03:46;97244.53;;;16.71;41.14
10348;BME280;5220;43.192;23.284;2023-04-28T13:06:16;97246.41;;;17.15;45.46
10348;BME280;5220;43.192;23.284;2023-04-28T13:08:43;97244.84;;;17.50;40.59
10348;BME280;5220;43.192;23.284;2023-04-28T13:11:10;97250.25;;;17.31;39.68
10348;BME280;5220;43.192;23.284;2023-04-28T13:13:36;97243.81;;;17.43;39.88
10348;BME280;5220;43.192;23.284;2023-04-28T13:16:04;97244.63;;;17.16;38.41
10348;BME280;5220;43.192;23.284;2023-04-28T13:18:30;97237.38;;;17.55;38.39